Time;durP1;ratioP1;P1;durP2;ratioP2;P2;SDS_P1;SDS_P2;PMS_P1;PMS_P2;Temp;Humidity;BMP_temperature;BMP_pressure;BME280_temperature;BME280_humidity;BME280_pressure;Samples;Min_cycle;Max_cycle;Signal;HPM_P1;HPM_P2
2022/11/06 00:00:37;;;;;;;34.43;22.05;;;;;;;;;;1662859;85;21958;-50
2022/11/06 00:03:04;;;;;;;36.75;23.42;;;;;;;;;;1658315;84;21070;-49
2022/11/06 00:08:34;;;;;;;36.53;22.00;;;;;;;;;;1659356;85;21089;-48
2022/11/06 00:11:00;;;;;;;38.35;21.80;;;;;;;;;;1660773;84;20996;-47
2022/11/06 00:13:26;;;;;;;41.90;23.02;;;;;;;;;;1662820;85;21797;-48
2022/11/06 00:15:53;;;;;;;39.85;24.23;;;;;;;;;;1659076;85;21487;-48
2022/11/06 00:18:20;;;;;;;38.10;23.57;;;;;;;;;;1661790;85;21007;-47
2022/11/06 00:20:47;;;;;;;39.27;24.12;;;;;;;;;;1663960;85;21047;-47
2022/11/06 00:23:13;;;;;;;38.98;22.60;;;;;;;;;;1662685;85;21074;-49
2022/11/06 00:25:40;;;;;;;35.35;19.92;;;;;;;;;;1649639;85;21755;-48
2022/11/06 00:28:06;;;;;;;36.63;23.20;;;;;;;;;;1711661;81;21042;-50
2022/11/06 00:30:33;;;;;;;36.75;23.73;;;;;;;;;;1711622;81;20975;-48
2022/11/06 00:32:59;;;;;;;36.03;22.58;;;;;;;;;;1711361;81;20986;-48
2022/11/06 00:35:25;;;;;;;37.35;24.15;;;;;;;;;;1711797;81;20980;-47
2022/11/06 00:37:51;;;;;;;40.60;23.90;;;;;;;;;;1712855;81;21831;-48
2022/11/06 00:40:19;;;;;;;38.17;23.07;;;;;;;;;;1711625;81;21177;-48
2022/11/06 00:42:46;;;;;;;34.85;23.22;;;;;;;;;;1711621;81;21038;-48
2022/11/06 00:45:13;;;;;;;38.02;24.75;;;;;;;;;;1715585;81;21352;-48
2022/11/06 00:47:39;;;;;;;33.70;22.75;;;;;;;;;;1713385;81;21505;-48
2022/11/06 00:50:07;;;;;;;36.25;23.10;;;;;;;;;;1710622;81;21863;-49
2022/11/06 00:52:33;;;;;;;37.08;22.07;;;;;;;;;;1709090;81;21558;-48
2022/11/06 00:55:00;;;;;;;34.65;22.55;;;;;;;;;;1709335;81;21155;-47
2022/11/06 00:57:27;;;;;;;38.55;22.32;;;;;;;;;;1706642;81;21046;-47
2022/11/06 00:59:53;;;;;;;32.73;21.55;;;;;;;;;;1709546;81;21547;-48
2022/11/06 01:02:19;;;;;;;36.23;24.20;;;;;;;;;;1713639;81;21971;-47
2022/11/06 01:04:46;;;;;;;34.92;24.05;;;;;;;;;;1712124;81;21095;-48
2022/11/06 01:07:12;;;;;;;36.68;22.62;;;;;;;;;;1709928;81;21692;-47
2022/11/06 01:09:38;;;;;;;37.15;22.75;;;;;;;;;;1711821;81;21470;-48
2022/11/06 01:12:04;;;;;;;36.45;22.52;;;;;;;;;;1711631;81;21109;-48
2022/11/06 01:14:31;;;;;;;32.85;22.22;;;;;;;;;;1715132;81;22068;-47
2022/11/06 01:16:59;;;;;;;36.42;22.50;;;;;;;;;;1709397;81;21053;-47
2022/11/06 01:19:25;;;;;;;34.85;22.77;;;;;;;;;;1708205;81;21086;-48
2022/11/06 01:21:53;;;;;;;36.42;22.65;;;;;;;;;;1713989;81;21066;-46
2022/11/06 01:24:21;;;;;;;29.65;20.72;;;;;;;;;;1708520;82;21510;-49
2022/11/06 01:26:49;;;;;;;35.52;22.77;;;;;;;;;;1704084;82;21034;-48
2022/11/06 01:29:16;;;;;;;33.80;22.40;;;;;;;;;;1655950;84;21906;-48
2022/11/06 01:31:42;;;;;;;37.20;22.70;;;;;;;;;;1703353;82;21635;-47
2022/11/06 01:34:09;;;;;;;36.28;22.42;;;;;;;;;;1698692;82;21109;-48
2022/11/06 01:36:35;;;;;;;35.63;22.90;;;;;;;;;;1690373;82;21065;-48
2022/11/06 01:39:04;;;;;;;30.08;19.50;;;;;;;;;;1697978;82;21799;-47
2022/11/06 01:41:40;;;;;;;33.70;22.02;;;;;;;;;;1706958;82;21081;-48
2022/11/06 01:44:44;;;;;;;29.75;21.02;;;;;;;;;;1701412;82;21140;-48
2022/11/06 01:47:26;;;;;;;30.08;20.40;;;;;;;;;;1703451;82;21053;-48
2022/11/06 01:49:56;;;;;;;34.08;23.00;;;;;;;;;;1698209;82;21081;-48
2022/11/06 01:52:22;;;;;;;35.23;21.37;;;;;;;;;;1706620;82;22421;-47
2022/11/06 01:54:51;;;;;;;30.15;19.98;;;;;;;;;;1706656;82;21531;-50
2022/11/06 01:57:18;;;;;;;34.05;21.48;;;;;;;;;;1695929;82;21041;-48
2022/11/06 01:59:44;;;;;;;34.25;21.75;;;;;;;;;;1699718;82;21509;-48
2022/11/06 02:02:10;;;;;;;34.18;21.40;;;;;;;;;;1702094;82;21613;-48
2022/11/06 02:04:39;;;;;;;34.08;20.57;;;;;;;;;;1702984;82;21863;-48
2022/11/06 02:07:06;;;;;;;31.42;20.88;;;;;;;;;;1702826;82;21033;-47
2022/11/06 02:09:33;;;;;;;31.33;21.75;;;;;;;;;;1704839;82;21069;-48
2022/11/06 02:12:06;;;;;;;32.50;21.93;;;;;;;;;;1703745;81;21014;-50
2022/11/06 02:14:51;;;;;;;31.25;19.65;;;;;;;;;;1700949;82;21483;-48
2022/11/06 02:17:53;;;;;;;32.25;20.35;;;;;;;;;;1703252;82;21837;-47
2022/11/06 02:20:42;;;;;;;32.08;20.15;;;;;;;;;;1704030;82;21057;-49
2022/11/06 02:23:18;;;;;;;32.95;22.77;;;;;;;;;;1699429;82;21495;-48
2022/11/06 02:25:51;;;;;;;31.23;21.20;;;;;;;;;;1707753;81;21061;-47
2022/11/06 02:28:26;;;;;;;30.50;19.48;;;;;;;;;;1712154;81;21034;-48
2022/11/06 02:30:52;;;;;;;31.07;20.92;;;;;;;;;;1710846;81;21849;-48
2022/11/06 02:33:22;;;;;;;33.78;19.87;;;;;;;;;;1709488;81;21028;-48
2022/11/06 02:35:52;;;;;;;30.25;20.17;;;;;;;;;;1710168;81;21068;-48
2022/11/06 02:38:27;;;;;;;29.52;18.60;;;;;;;;;;1712052;81;21037;-48
2022/11/06 02:40:56;;;;;;;31.30;19.30;;;;;;;;;;1709247;81;21049;-49
2022/11/06 02:43:26;;;;;;;28.42;19.75;;;;;;;;;;1709328;81;21788;-48
2022/11/06 02:45:54;;;;;;;36.30;21.42;;;;;;;;;;1709380;81;21045;-49
2022/11/06 02:48:23;;;;;;;27.93;20.37;;;;;;;;;;1714230;81;21093;-47
2022/11/06 02:50:49;;;;;;;30.65;20.23;;;;;;;;;;1710128;81;21037;-49
2022/11/06 02:53:16;;;;;;;28.75;18.92;;;;;;;;;;1712885;81;21666;-48
2022/11/06 02:55:48;;;;;;;29.42;20.05;;;;;;;;;;1711928;81;22508;-48
2022/11/06 02:58:20;;;;;;;28.62;19.92;;;;;;;;;;1717290;81;20983;-49
2022/11/06 03:00:50;;;;;;;26.82;19.45;;;;;;;;;;1711303;81;21026;-48
2022/11/06 03:03:25;;;;;;;32.60;20.88;;;;;;;;;;1718575;81;20970;-48
2022/11/06 03:06:13;;;;;;;26.12;18.37;;;;;;;;;;1710621;81;20970;-48
2022/11/06 03:08:51;;;;;;;32.05;20.88;;;;;;;;;;1708747;81;21814;-47
2022/11/06 03:11:25;;;;;;;32.15;20.00;;;;;;;;;;1716069;81;21476;-48
2022/11/06 03:13:57;;;;;;;32.63;20.52;;;;;;;;;;1706496;81;20978;-49
2022/11/06 03:16:50;;;;;;;32.95;20.95;;;;;;;;;;1715575;81;20976;-49
2022/11/06 03:19:24;;;;;;;36.55;22.13;;;;;;;;;;1712877;81;20990;-47
2022/11/06 03:22:03;;;;;;;37.88;21.60;;;;;;;;;;1719735;81;21872;-48
2022/11/06 03:24:39;;;;;;;29.30;21.20;;;;;;;;;;1696520;81;20985;-48
2022/11/06 03:27:09;;;;;;;35.23;21.57;;;;;;;;;;1669001;83;21408;-47
2022/11/06 03:29:39;;;;;;;33.42;21.87;;;;;;;;;;1662224;83;21092;-48
2022/11/06 03:32:21;;;;;;;37.08;23.50;;;;;;;;;;1666299;83;21039;-47
2022/11/06 03:34:53;;;;;;;30.27;20.37;;;;;;;;;;1663469;83;22055;-47
2022/11/06 03:37:29;;;;;;;35.45;21.62;;;;;;;;;;1661771;83;21012;-47
2022/11/06 03:39:57;;;;;;;35.98;22.77;;;;;;;;;;1665876;83;21015;-48
2022/11/06 03:42:25;;;;;;;39.45;21.17;;;;;;;;;;1647370;84;21023;-47
2022/11/06 03:44:54;;;;;;;36.20;23.12;;;;;;;;;;1665312;83;21079;-47
2022/11/06 03:47:23;;;;;;;35.38;22.80;;;;;;;;;;1664751;83;22691;-48
2022/11/06 03:49:53;;;;;;;37.80;23.20;;;;;;;;;;1652268;83;21027;-48
2022/11/06 03:52:29;;;;;;;34.03;22.17;;;;;;;;;;1662718;83;21070;-48
2022/11/06 03:55:02;;;;;;;35.68;23.40;;;;;;;;;;1662526;83;20984;-48
2022/11/06 03:57:38;;;;;;;36.88;22.67;;;;;;;;;;1629282;86;21080;-48
2022/11/06 04:00:05;;;;;;;40.35;24.75;;;;;;;;;;1629208;83;22593;-48
2022/11/06 04:02:36;;;;;;;34.25;22.40;;;;;;;;;;1665880;83;21050;-49
2022/11/06 04:05:12;;;;;;;38.50;23.85;;;;;;;;;;1660910;83;21050;-48
2022/11/06 04:13:55;;;;;;;43.00;23.40;;;;;;;;;;1668132;83;21448;-47
2022/11/06 04:15:44;;;;;;;34.40;20.50;;;;;;;;;;1647289;84;21059;-46
2022/11/06 04:18:13;;;;;;;38.35;23.40;;;;;;;;;;1660414;83;21134;-45
2022/11/06 04:23:36;;;;;;;37.35;21.68;;;;;;;;;;1664637;83;21058;-47
2022/11/06 04:26:50;;;;;;;34.48;21.50;;;;;;;;;;1696882;82;23962;-47
2022/11/06 04:28:48;;;;;;;38.98;22.30;;;;;;;;;;1679652;82;21725;-46
2022/11/06 04:31:30;;;;;;;32.25;20.70;;;;;;;;;;1703579;82;21083;-45
2022/11/06 04:34:00;;;;;;;33.95;21.45;;;;;;;;;;1699130;82;21527;-45
2022/11/06 04:36:47;;;;;;;36.48;23.00;;;;;;;;;;1701277;82;21515;-49
2022/11/06 04:39:23;;;;;;;35.28;21.48;;;;;;;;;;1704651;82;21947;-47
2022/11/06 04:42:02;;;;;;;37.17;21.05;;;;;;;;;;1697823;82;21061;-48
2022/11/06 04:44:34;;;;;;;38.02;22.40;;;;;;;;;;1700213;82;22336;-46
2022/11/06 04:47:03;;;;;;;32.78;19.65;;;;;;;;;;1704539;82;21317;-46
2022/11/06 04:49:31;;;;;;;33.28;21.02;;;;;;;;;;1704557;82;21200;-47
2022/11/06 04:51:58;;;;;;;30.72;20.43;;;;;;;;;;1702134;82;21850;-47
2022/11/06 04:54:24;;;;;;;34.38;21.55;;;;;;;;;;1704572;82;21076;-47
2022/11/06 04:56:50;;;;;;;32.33;20.62;;;;;;;;;;1691678;82;21595;-48
2022/11/06 04:59:16;;;;;;;32.20;21.05;;;;;;;;;;1700475;82;21085;-48
2022/11/06 05:01:44;;;;;;;35.20;22.82;;;;;;;;;;1701752;82;21650;-48
2022/11/06 05:04:11;;;;;;;37.23;21.80;;;;;;;;;;1699082;82;21839;-47
2022/11/06 05:06:37;;;;;;;31.35;18.87;;;;;;;;;;1701272;82;21029;-46
2022/11/06 05:09:03;;;;;;;27.27;18.48;;;;;;;;;;1706503;82;21051;-47
2022/11/06 05:11:29;;;;;;;26.85;17.80;;;;;;;;;;1704125;82;21006;-47
2022/11/06 05:13:55;;;;;;;30.72;17.00;;;;;;;;;;1705598;82;20988;-48
2022/11/06 05:16:21;;;;;;;33.95;18.32;;;;;;;;;;1698740;82;21941;-48
2022/11/06 05:18:48;;;;;;;25.12;16.87;;;;;;;;;;1703501;82;21590;-48
2022/11/06 05:23:59;;;;;;;26.95;16.55;;;;;;;;;;1702033;82;21527;-48
2022/11/06 05:26:25;;;;;;;26.40;15.95;;;;;;;;;;1712034;81;21542;-48
2022/11/06 05:28:51;;;;;;;28.35;17.55;;;;;;;;;;1719509;81;21800;-48
2022/11/06 05:31:17;;;;;;;30.85;17.42;;;;;;;;;;1719311;81;21081;-48
2022/11/06 05:36:25;;;;;;;29.13;17.40;;;;;;;;;;1867154;75;22719;-47
2022/11/06 05:38:51;;;;;;;25.37;17.57;;;;;;;;;;1842844;75;21021;-46
2022/11/06 05:41:17;;;;;;;29.63;17.30;;;;;;;;;;1838246;75;21829;-46
2022/11/06 05:43:43;;;;;;;30.62;17.15;;;;;;;;;;1850526;75;21575;-47
2022/11/06 05:46:10;;;;;;;29.48;17.57;;;;;;;;;;1842638;75;21608;-46
2022/11/06 05:48:36;;;;;;;29.23;15.50;;;;;;;;;;1843634;75;21040;-46
2022/11/06 05:51:03;;;;;;;30.27;17.48;;;;;;;;;;1848901;75;22052;-49
2022/11/06 05:53:30;;;;;;;26.73;16.27;;;;;;;;;;1842081;75;23765;-50
2022/11/06 05:55:57;;;;;;;31.75;17.73;;;;;;;;;;1813537;75;20957;-48
2022/11/06 05:58:23;;;;;;;29.25;18.25;;;;;;;;;;1811467;77;20958;-48
2022/11/06 06:00:49;;;;;;;28.85;17.30;;;;;;;;;;1810755;77;21010;-48
2022/11/06 06:03:15;;;;;;;33.10;17.32;;;;;;;;;;1816128;77;21044;-50
2022/11/06 06:05:42;;;;;;;27.58;17.92;;;;;;;;;;1815240;77;21784;-48
2022/11/06 06:08:08;;;;;;;28.73;16.90;;;;;;;;;;1813591;77;20957;-49
2022/11/06 06:10:35;;;;;;;30.52;18.07;;;;;;;;;;1813540;77;21499;-48
2022/11/06 06:13:01;;;;;;;28.95;17.77;;;;;;;;;;1765038;77;20993;-49
2022/11/06 06:15:27;;;;;;;27.42;17.85;;;;;;;;;;1817462;77;21443;-49
2022/11/06 06:17:53;;;;;;;30.65;17.73;;;;;;;;;;1813543;77;22424;-50
2022/11/06 06:20:19;;;;;;;29.18;18.90;;;;;;;;;;1815617;77;20967;-48
2022/11/06 06:22:55;;;;;;;31.20;17.15;;;;;;;;;;1811809;77;21471;-50
2022/11/06 06:25:22;;;;;;;28.17;17.27;;;;;;;;;;1812254;76;21435;-48
2022/11/06 06:27:49;;;;;;;28.47;17.42;;;;;;;;;;1816135;77;21031;-49
2022/11/06 06:30:16;;;;;;;32.28;18.42;;;;;;;;;;1817567;77;22161;-48
2022/11/06 06:32:43;;;;;;;37.28;18.20;;;;;;;;;;1817117;77;21802;-45
2022/11/06 06:35:09;;;;;;;30.57;17.25;;;;;;;;;;1810446;77;21326;-47
2022/11/06 06:37:36;;;;;;;30.82;18.50;;;;;;;;;;1802941;77;21543;-47
2022/11/06 06:40:03;;;;;;;32.42;19.12;;;;;;;;;;1800058;77;21139;-47
2022/11/06 06:42:30;;;;;;;34.40;17.70;;;;;;;;;;1797485;77;21941;-46
2022/11/06 06:44:56;;;;;;;34.30;18.30;;;;;;;;;;1799543;77;21075;-46
2022/11/06 06:47:22;;;;;;;34.85;18.75;;;;;;;;;;1796352;77;21032;-46
2022/11/06 06:49:49;;;;;;;33.98;19.67;;;;;;;;;;1796707;77;21044;-47
2022/11/06 06:52:15;;;;;;;30.02;18.02;;;;;;;;;;1799043;77;21104;-46
2022/11/06 06:54:41;;;;;;;30.48;17.95;;;;;;;;;;1797584;77;21831;-48
2022/11/06 06:57:07;;;;;;;30.88;18.02;;;;;;;;;;1799864;77;21049;-46
2022/11/06 07:02:21;;;;;;;31.97;18.83;;;;;;;;;;1788824;78;23143;-46
2022/11/06 07:04:48;;;;;;;31.73;19.17;;;;;;;;;;1776065;78;21061;-47
2022/11/06 07:07:14;;;;;;;30.43;18.42;;;;;;;;;;1773751;78;21884;-46
2022/11/06 07:09:40;;;;;;;34.40;18.85;;;;;;;;;;1770889;78;22029;-46
2022/11/06 07:12:06;;;;;;;34.03;20.32;;;;;;;;;;1770731;78;21120;-48
2022/11/06 07:14:33;;;;;;;29.87;18.00;;;;;;;;;;1777114;79;20982;-47
2022/11/06 07:17:00;;;;;;;32.58;17.65;;;;;;;;;;1777182;79;21025;-47
2022/11/06 07:19:26;;;;;;;27.73;16.57;;;;;;;;;;1775279;78;21719;-47
2022/11/06 07:21:52;;;;;;;27.32;16.82;;;;;;;;;;1784180;78;21017;-48
2022/11/06 07:24:19;;;;;;;29.60;17.92;;;;;;;;;;1773413;78;21606;-47
2022/11/06 07:26:45;;;;;;;28.95;16.60;;;;;;;;;;1775538;78;21065;-49
2022/11/06 07:29:11;;;;;;;27.75;15.93;;;;;;;;;;1777617;78;21054;-47
2022/11/06 07:31:38;;;;;;;29.52;16.90;;;;;;;;;;1777482;78;21822;-48
2022/11/06 07:34:05;;;;;;;30.60;17.37;;;;;;;;;;1768123;78;21088;-48
2022/11/06 07:36:32;;;;;;;32.78;18.57;;;;;;;;;;1780249;78;21499;-48
2022/11/06 07:38:59;;;;;;;28.25;16.62;;;;;;;;;;1746859;78;21013;-47
2022/11/06 07:41:27;;;;;;;27.95;17.62;;;;;;;;;;1785505;78;21064;-47
2022/11/06 07:43:53;;;;;;;26.85;17.00;;;;;;;;;;1771685;78;22627;-47
2022/11/06 07:46:21;;;;;;;28.40;17.27;;;;;;;;;;1771005;78;21319;-47
2022/11/06 07:48:47;;;;;;;25.48;15.48;;;;;;;;;;1772336;78;21077;-48
2022/11/06 07:51:14;;;;;;;26.37;15.20;;;;;;;;;;1780760;78;21031;-48
2022/11/06 07:53:40;;;;;;;22.32;14.50;;;;;;;;;;1769985;78;21496;-48
2022/11/06 07:56:07;;;;;;;23.15;15.30;;;;;;;;;;1756525;79;21771;-47
2022/11/06 07:58:34;;;;;;;21.77;13.65;;;;;;;;;;1756573;79;21120;-48
2022/11/06 08:01:01;;;;;;;20.40;13.55;;;;;;;;;;1755799;79;21031;-48
2022/11/06 08:03:30;;;;;;;22.30;15.35;;;;;;;;;;1749344;79;21077;-47
2022/11/06 08:05:57;;;;;;;20.95;14.05;;;;;;;;;;1753641;79;21081;-47
2022/11/06 08:10:52;;;;;;;23.70;14.77;;;;;;;;;;1817950;77;21984;-47
2022/11/06 08:13:19;;;;;;;20.85;13.45;;;;;;;;;;1805870;77;21361;-46
2022/11/06 08:15:46;;;;;;;22.30;15.03;;;;;;;;;;1797716;77;21813;-47
2022/11/06 08:18:12;;;;;;;25.17;15.95;;;;;;;;;;1800034;77;21530;-47
2022/11/06 08:20:40;;;;;;;21.82;14.53;;;;;;;;;;1801313;77;21021;-48
2022/11/06 08:23:07;;;;;;;24.67;14.87;;;;;;;;;;1807651;77;21040;-46
2022/11/06 08:25:34;;;;;;;24.45;14.85;;;;;;;;;;1802295;77;21090;-46
2022/11/06 08:28:00;;;;;;;21.55;14.18;;;;;;;;;;1799964;77;21290;-47
2022/11/06 08:30:27;;;;;;;23.65;16.30;;;;;;;;;;1797513;77;21044;-46
2022/11/06 08:32:54;;;;;;;20.55;13.13;;;;;;;;;;1800319;77;21076;-47
2022/11/06 08:35:21;;;;;;;22.67;14.50;;;;;;;;;;1806215;77;21009;-48
2022/11/06 08:37:47;;;;;;;27.95;19.48;;;;;;;;;;1801591;77;21021;-48
2022/11/06 08:40:13;;;;;;;25.35;14.63;;;;;;;;;;1805371;77;21758;-47
2022/11/06 08:42:40;;;;;;;20.65;13.93;;;;;;;;;;1801261;77;20962;-48
2022/11/06 08:45:07;;;;;;;30.50;19.62;;;;;;;;;;1803058;77;21495;-48
2022/11/06 08:47:33;;;;;;;26.90;17.07;;;;;;;;;;1803792;77;21400;-48
2022/11/06 08:49:59;;;;;;;28.65;17.12;;;;;;;;;;1803062;77;21009;-47
2022/11/06 08:52:25;;;;;;;29.82;16.73;;;;;;;;;;1803581;77;21772;-48
2022/11/06 08:54:52;;;;;;;30.52;17.48;;;;;;;;;;1802122;77;21586;-49
2022/11/06 08:57:18;;;;;;;32.15;17.50;;;;;;;;;;1807661;77;20967;-47
2022/11/06 08:59:44;;;;;;;27.70;17.07;;;;;;;;;;1806800;77;21033;-49
2022/11/06 09:02:11;;;;;;;41.33;28.57;;;;;;;;;;1809667;77;21424;-49
2022/11/06 09:04:39;;;;;;;30.97;18.07;;;;;;;;;;1804585;77;21625;-48
2022/11/06 09:07:06;;;;;;;25.15;15.53;;;;;;;;;;1805418;77;20974;-49
2022/11/06 09:09:32;;;;;;;27.48;15.98;;;;;;;;;;1799249;77;20986;-48
2022/11/06 09:11:59;;;;;;;29.92;15.23;;;;;;;;;;1789772;78;21025;-48
2022/11/06 09:14:25;;;;;;;26.02;14.75;;;;;;;;;;1791670;78;21132;-48
2022/11/06 09:16:51;;;;;;;26.82;15.18;;;;;;;;;;1799874;78;21772;-48
2022/11/06 09:19:18;;;;;;;21.75;11.97;;;;;;;;;;1789030;78;21061;-47
2022/11/06 09:21:45;;;;;;;27.50;15.60;;;;;;;;;;1796074;77;21018;-47
2022/11/06 09:24:11;;;;;;;22.50;14.00;;;;;;;;;;1791591;77;21038;-48
2022/11/06 09:26:38;;;;;;;25.20;15.20;;;;;;;;;;1783456;78;21098;-49
2022/11/06 09:29:04;;;;;;;25.92;14.93;;;;;;;;;;1789232;77;22008;-50
2022/11/06 09:31:32;;;;;;;24.32;13.55;;;;;;;;;;1790073;77;21470;-48
2022/11/06 09:33:58;;;;;;;22.85;14.25;;;;;;;;;;1787058;77;21034;-49
2022/11/06 09:36:26;;;;;;;21.87;13.55;;;;;;;;;;1793667;77;21119;-48
2022/11/06 09:38:52;;;;;;;22.85;13.70;;;;;;;;;;1791153;77;21087;-49
2022/11/06 09:41:24;;;;;;;24.57;13.72;;;;;;;;;;1796373;77;21822;-49
2022/11/06 09:44:30;;;;;;;23.10;13.18;;;;;;;;;;1778252;77;21056;-49
2022/11/06 09:46:56;;;;;;;;;;;;;;;;;;1789353;77;21085;-49
2022/11/06 09:49:25;;;;;;;26.30;12.75;;;;;;;;;;1789844;78;20505;-48
2022/11/06 09:52:11;;;;;;;20.55;12.07;;;;;;;;;;1788119;77;21069;-48
2022/11/06 09:54:39;;;;;;;22.70;13.22;;;;;;;;;;1790344;77;23198;-49
2022/11/06 09:57:30;;;;;;;21.48;12.43;;;;;;;;;;1795742;78;21054;-49
2022/11/06 09:59:56;;;;;;;18.37;11.57;;;;;;;;;;1791298;78;21461;-48
2022/11/06 10:02:31;;;;;;;16.62;10.93;;;;;;;;;;1790982;77;21326;-48
2022/11/06 10:05:07;;;;;;;14.83;10.20;;;;;;;;;;1787742;78;21160;-49
2022/11/06 10:07:35;;;;;;;14.58;9.73;;;;;;;;;;1790206;77;21785;-49
2022/11/06 10:10:06;;;;;;;16.90;11.28;;;;;;;;;;1770534;78;21030;-48
2022/11/06 10:12:53;;;;;;;17.25;10.00;;;;;;;;;;1792748;77;20983;-49
2022/11/06 10:15:26;;;;;;;13.80;9.08;;;;;;;;;;1771093;77;21015;-49
2022/11/06 10:17:58;;;;;;;;;;;;;;;;;;1796403;78;21042;-48
2022/11/06 10:20:46;;;;;;;15.40;9.83;;;;;;;;;;1793331;78;21762;-48
2022/11/06 10:23:21;;;;;;;13.72;9.55;;;;;;;;;;1794645;77;21077;-48
2022/11/06 10:26:40;;;;;;;17.77;11.57;;;;;;;;;;1773937;78;22105;-48
2022/11/06 10:29:25;;;;;;;14.78;9.63;;;;;;;;;;1749649;80;21040;-47
2022/11/06 10:32:07;;;;;;;13.50;8.40;;;;;;;;;;1749678;80;21847;-47
2022/11/06 10:34:37;;;;;;;14.03;8.65;;;;;;;;;;1752500;80;20976;-48
2022/11/06 10:37:18;;;;;;;24.57;14.98;;;;;;;;;;1759119;80;21464;-48
2022/11/06 10:39:45;;;;;;;14.15;9.73;;;;;;;;;;1755081;80;20989;-47
2022/11/06 10:42:17;;;;;;;14.75;10.45;;;;;;;;;;1751656;80;21796;-48
2022/11/06 10:44:54;;;;;;;14.73;10.30;;;;;;;;;;1753441;80;22039;-49
2022/11/06 10:47:22;;;;;;;15.72;9.65;;;;;;;;;;1752082;80;21539;-48
2022/11/06 10:49:55;;;;;;;13.58;9.18;;;;;;;;;;1753606;80;21589;-47
2022/11/06 10:52:34;;;;;;;11.55;8.33;;;;;;;;;;1753836;80;20975;-48
2022/11/06 10:55:19;;;;;;;14.95;11.00;;;;;;;;;;1732958;80;21573;-48
2022/11/06 10:57:51;;;;;;;15.98;9.35;;;;;;;;;;1712044;81;21928;-49
2022/11/06 11:00:18;;;;;;;17.23;10.05;;;;;;;;;;1714768;81;21041;-48
2022/11/06 11:02:50;;;;;;;16.95;11.05;;;;;;;;;;1708894;81;21089;-47
2022/11/06 11:05:18;;;;;;;16.65;10.63;;;;;;;;;;1710629;81;21077;-47
2022/11/06 11:07:45;;;;;;;12.47;9.50;;;;;;;;;;1713106;81;22284;-48
2022/11/06 11:10:31;;;;;;;14.85;10.30;;;;;;;;;;1710055;81;21928;-48
2022/11/06 11:12:59;;;;;;;12.63;8.83;;;;;;;;;;1707152;81;21057;-48
2022/11/06 11:15:26;;;;;;;12.93;9.08;;;;;;;;;;1711452;81;21013;-47
2022/11/06 11:18:13;;;;;;;13.70;9.78;;;;;;;;;;1710823;81;21052;-49
2022/11/06 11:20:45;;;;;;;12.70;9.38;;;;;;;;;;1709778;81;21009;-48
2022/11/06 11:23:21;;;;;;;11.73;10.10;;;;;;;;;;1713731;81;21872;-48
2022/11/06 11:25:48;;;;;;;15.23;10.25;;;;;;;;;;1704789;81;20994;-48
2022/11/06 11:28:26;;;;;;;14.38;9.25;;;;;;;;;;1706094;82;21088;-47
2022/11/06 11:30:55;;;;;;;12.68;8.73;;;;;;;;;;1701055;82;21042;-48
2022/11/06 11:33:22;;;;;;;12.43;8.93;;;;;;;;;;1698368;82;21827;-48
2022/11/06 11:35:50;;;;;;;11.90;9.63;;;;;;;;;;1699779;82;21260;-48
2022/11/06 11:38:17;;;;;;;9.58;8.55;;;;;;;;;;1697732;82;21050;-47
2022/11/06 11:40:44;;;;;;;11.88;9.05;;;;;;;;;;1702340;82;21042;-48
2022/11/06 11:43:25;;;;;;;15.83;9.28;;;;;;;;;;1697768;82;21567;-48
2022/11/06 11:46:06;;;;;;;11.70;8.43;;;;;;;;;;1697102;82;21015;-49
2022/11/06 11:48:51;;;;;;;12.33;8.30;;;;;;;;;;1699961;82;21807;-49
2022/11/06 11:51:22;;;;;;;;;;;;;;;;;;1704972;82;21133;-49
2022/11/06 11:53:49;;;;;;;13.30;9.03;;;;;;;;;;1699484;82;20566;-49
2022/11/06 11:56:18;;;;;;;13.22;8.83;;;;;;;;;;1699327;82;21069;-48
2022/11/06 11:58:50;;;;;;;14.90;9.90;;;;;;;;;;1697554;82;21097;-49
2022/11/06 12:01:16;;;;;;;13.43;9.68;;;;;;;;;;1703702;82;23089;-49
2022/11/06 12:03:44;;;;;;;13.68;8.90;;;;;;;;;;1695823;82;21181;-48
2022/11/06 12:06:12;;;;;;;11.53;8.90;;;;;;;;;;1695605;82;21058;-48
2022/11/06 12:08:40;;;;;;;11.45;8.28;;;;;;;;;;1696215;82;22497;-48
2022/11/06 12:11:06;;;;;;;12.55;9.18;;;;;;;;;;1702143;82;21061;-48
2022/11/06 12:13:32;;;;;;;14.33;10.90;;;;;;;;;;1669019;84;21763;-48
2022/11/06 12:16:02;;;;;;;12.78;8.35;;;;;;;;;;1702390;82;21057;-48
2022/11/06 12:18:38;;;;;;;13.50;10.65;;;;;;;;;;1702906;82;21150;-48
2022/11/06 12:21:17;;;;;;;15.00;10.10;;;;;;;;;;1700503;82;21136;-48
2022/11/06 12:23:55;;;;;;;13.48;8.58;;;;;;;;;;1697159;82;21161;-49
2022/11/06 12:26:36;;;;;;;13.45;9.65;;;;;;;;;;1697760;82;21834;-48
2022/11/06 12:29:21;;;;;;;12.45;9.38;;;;;;;;;;1697677;82;21097;-47
2022/11/06 12:32:04;;;;;;;;;;;;;;;;;;1704263;82;21519;-48
2022/11/06 12:34:37;;;;;;;14.13;10.32;;;;;;;;;;1698300;82;20496;-48
2022/11/06 12:37:13;;;;;;;14.98;11.53;;;;;;;;;;1702707;82;21025;-49
2022/11/06 12:39:41;;;;;;;17.57;12.60;;;;;;;;;;1701167;82;21892;-47
2022/11/06 12:42:10;;;;;;;17.30;12.05;;;;;;;;;;1698598;82;21081;-48
2022/11/06 12:44:36;;;;;;;17.00;12.50;;;;;;;;;;1701245;82;21398;-48
2022/11/06 12:47:15;;;;;;;15.63;11.22;;;;;;;;;;1670787;84;21039;-48
2022/11/06 12:49:48;;;;;;;15.58;11.00;;;;;;;;;;1698891;82;21469;-48
2022/11/06 12:52:28;;;;;;;14.35;11.20;;;;;;;;;;1705643;82;22563;-47
2022/11/06 12:55:10;;;;;;;14.25;11.12;;;;;;;;;;1700121;82;21086;-47
2022/11/06 12:58:11;;;;;;;19.15;12.85;;;;;;;;;;1697785;82;21070;-48
2022/11/06 13:01:03;;;;;;;17.85;12.03;;;;;;;;;;1701193;82;21657;-48
2022/11/06 13:03:56;;;;;;;18.67;12.70;;;;;;;;;;1697992;82;21033;-48
2022/11/06 13:06:58;;;;;;;16.70;11.45;;;;;;;;;;1702865;82;21845;-48
2022/11/06 13:09:32;;;;;;;16.97;10.88;;;;;;;;;;1701990;82;20970;-47
2022/11/06 13:12:08;;;;;;;17.00;12.20;;;;;;;;;;1699753;82;21646;-47
2022/11/06 13:14:38;;;;;;;16.97;11.80;;;;;;;;;;1699556;82;21045;-47
2022/11/06 13:17:17;;;;;;;15.93;11.22;;;;;;;;;;1700255;82;20983;-47
2022/11/06 13:20:04;;;;;;;17.00;11.12;;;;;;;;;;1700405;82;21774;-49
2022/11/06 13:22:43;;;;;;;17.55;12.43;;;;;;;;;;1700024;82;21038;-47
2022/11/06 13:25:21;;;;;;;20.85;13.30;;;;;;;;;;1704088;82;21417;-47
2022/11/06 13:27:53;;;;;;;18.75;12.18;;;;;;;;;;1682644;83;21015;-48
2022/11/06 13:30:20;;;;;;;17.05;12.37;;;;;;;;;;1684904;83;21018;-47
2022/11/06 13:32:53;;;;;;;15.75;11.53;;;;;;;;;;1685812;83;21797;-48
2022/11/06 13:35:20;;;;;;;16.60;11.73;;;;;;;;;;1688385;83;21057;-48
2022/11/06 13:37:47;;;;;;;17.25;11.65;;;;;;;;;;1651536;85;20982;-48
2022/11/06 13:40:26;;;;;;;17.30;11.48;;;;;;;;;;1660139;85;20990;-48
2022/11/06 13:43:02;;;;;;;18.25;12.05;;;;;;;;;;1685612;83;21005;-48
2022/11/06 13:45:31;;;;;;;17.40;11.75;;;;;;;;;;1688071;83;21800;-48
2022/11/06 13:48:01;;;;;;;14.53;10.65;;;;;;;;;;1673754;83;21011;-48
2022/11/06 13:50:31;;;;;;;13.72;9.83;;;;;;;;;;1681041;83;20972;-48
2022/11/06 13:53:01;;;;;;;17.77;10.65;;;;;;;;;;1677212;83;21053;-47
2022/11/06 13:55:43;;;;;;;15.25;9.73;;;;;;;;;;1677558;83;21319;-47
2022/11/06 13:58:23;;;;;;;12.40;9.85;;;;;;;;;;1679420;83;21018;-47
2022/11/06 14:01:18;;;;;;;14.85;10.23;;;;;;;;;;1679040;83;21500;-47
2022/11/06 14:03:57;;;;;;;13.62;10.32;;;;;;;;;;1669117;83;21037;-48
2022/11/06 14:06:24;;;;;;;17.15;11.30;;;;;;;;;;1675411;83;21117;-50
2022/11/06 14:08:55;;;;;;;15.30;9.88;;;;;;;;;;1684397;83;21061;-49
2022/11/06 14:11:27;;;;;;;13.10;10.08;;;;;;;;;;1679022;83;21769;-49
2022/11/06 14:13:59;;;;;;;15.20;11.08;;;;;;;;;;1676765;83;21638;-49
2022/11/06 14:16:30;;;;;;;15.13;10.43;;;;;;;;;;1684157;83;21128;-49
2022/11/06 14:19:04;;;;;;;16.40;12.43;;;;;;;;;;1677572;83;21057;-48
2022/11/06 14:21:51;;;;;;;16.50;12.03;;;;;;;;;;1677256;83;21081;-48
2022/11/06 14:24:24;;;;;;;17.85;12.50;;;;;;;;;;1679162;83;21836;-48
2022/11/06 14:26:51;;;;;;;15.80;12.03;;;;;;;;;;1689567;82;21606;-48
2022/11/06 14:29:30;;;;;;;17.80;12.30;;;;;;;;;;1700502;83;21033;-48
2022/11/06 14:32:20;;;;;;;20.40;12.82;;;;;;;;;;1704898;82;21362;-48
2022/11/06 14:34:46;;;;;;;20.92;12.63;;;;;;;;;;1697317;82;21057;-49
2022/11/06 14:37:26;;;;;;;15.30;11.33;;;;;;;;;;1698674;82;21770;-49
2022/11/06 14:39:56;;;;;;;17.15;11.50;;;;;;;;;;1698523;83;21042;-48
2022/11/06 14:42:34;;;;;;;24.10;15.32;;;;;;;;;;1703015;82;21085;-49
2022/11/06 14:45:07;;;;;;;17.90;14.00;;;;;;;;;;1698760;82;21152;-48
2022/11/06 14:48:47;;;;;;;21.90;14.57;;;;;;;;;;1771900;78;22442;-46
2022/11/06 14:51:14;;;;;;;18.52;13.60;;;;;;;;;;1746245;80;21061;-47
2022/11/06 14:53:46;;;;;;;21.05;15.10;;;;;;;;;;1746648;80;22791;-47
2022/11/06 14:56:21;;;;;;;21.77;14.83;;;;;;;;;;1729890;81;21578;-47
2022/11/06 14:58:59;;;;;;;19.67;14.18;;;;;;;;;;1728434;82;21065;-49
2022/11/06 15:01:30;;;;;;;17.87;13.68;;;;;;;;;;1710975;82;21676;-47
2022/11/06 15:04:03;;;;;;;21.12;15.63;;;;;;;;;;1726616;82;21093;-46
2022/11/06 15:06:36;;;;;;;21.62;16.62;;;;;;;;;;1727475;82;21807;-48